This is the latest recevied weather packets stored in our database for station/object OE6ATD-13. If no packets are shown the sender has not sent any weather packets the latest 10 day(s).
| Time | Temp. | Humidity | Pressure | Rain* | Wind** | Luminosity | Snow |
|---|---|---|---|---|---|---|---|
| 1788633025 | 17.78° C | 90% | 1021.3 hPa | 0 mm | - | 0 W/m² | - |
| 1788632421 | 17.78° C | 89% | 1021.1 hPa | 0 mm | - | 0 W/m² | - |
| 1788631817 | 18.33° C | 88% | 1021.1 hPa | 0 mm | - | 0 W/m² | - |
| 1788631228 | 18.33° C | 86% | 1020.9 hPa | 0 mm | - | 0 W/m² | - |
| 1788630624 | 18.89° C | 84% | 1020.6 hPa | 0 mm | - | 0 W/m² | - |
| 1788630020 | 18.89° C | 83% | 1020.5 hPa | 0 mm | - | 0 W/m² | - |
| 1788629426 | 20° C | 81% | 1020.4 hPa | 0 mm | - | 4 W/m² | - |
| 1788628822 | 20.56° C | 77% | 1020.3 hPa | 0 mm | - | 8 W/m² | - |
| 1788628218 | 21.67° C | 73% | 1020.2 hPa | 0 mm | - | 15 W/m² | - |
| 1788627629 | 23.89° C | 65% | 1020.1 hPa | 0 mm | - | 19 W/m² | - |
| 1788627024 | 25.56° C | 63% | 1019.9 hPa | 0 mm | - | 31 W/m² | - |
| 1788626421 | 27.22° C | 60% | 1019.9 hPa | 0 mm | - | 40 W/m² | - |
| 1788625816 | 26.11° C | 61% | 1019.8 hPa | 0 mm | - | 47 W/m² | - |
| 1788625227 | 25° C | 63% | 1020 hPa | 0 mm | - | 54 W/m² | - |
| 1788624623 | 25° C | 64% | 1019.9 hPa | 0 mm | - | 70 W/m² | - |
| 1788624019 | 25° C | 65% | 1019.8 hPa | 0 mm | - | 85 W/m² | - |
| 1788623430 | 24.44° C | 68% | 1019.8 hPa | 0 mm | - | 113 W/m² | - |
| 1788622825 | 22.78° C | 76% | 1019.8 hPa | 0 mm | - | 190 W/m² | - |
| 1788622221 | 21.11° C | 78% | 1019.7 hPa | 0 mm | - | 114 W/m² | - |
| 1788621617 | 21.11° C | 76% | 1019.8 hPa | 0 mm | - | 65 W/m² | - |
| 1788621028 | 21.67° C | 74% | 1019.9 hPa | 0 mm | - | 53 W/m² | - |
| 1788620423 | 21.67° C | 73% | 1020.2 hPa | 0 mm | - | 64 W/m² | - |
| 1788619819 | 22.22° C | 70% | 1020 hPa | 0 mm | - | 98 W/m² | - |
| 1788619215 | 23.33° C | 65% | 1019.9 hPa | 0 mm | - | 154 W/m² | - |
| 1788618626 | 22.78° C | 71% | 1020 hPa | 0 mm | - | 423 W/m² | - |
* Rain latest hour (hover to see other rain measurements)
** Current wind speed in m/s (hover to see current wind gust speed)